KBKD/BKD METAR and TAF weather

Enter ICAO airport designator
Station Type Date Time Source
KBKD METAR 2022/01/29 10:15 UTC NOAA

KBKD 291015Z AUTO 00000KT 10SM CLR 00/M04 A3036 RMK AO2 T00031045


Station Type Date Time Source
KBKD Decoded METAR 2022/01/29 10:15 UTC NOAA

Station name not available
Jan 29, 2022 - 05:15 AM EST / 2022.01.29 1015 UTC
Wind: Calm:0
Visibility: 10 mile(s):0
Sky conditions: clear
Temperature: 32.5 F (0.3 C)
Dew Point: 23.9 F (-4.5 C)
Relative Humidity: 70%
Pressure (altimeter): 30.36 in. Hg (1028 hPa)
ob: KBKD 291015Z AUTO 00000KT 10SM CLR 00/M04 A3036 RMK AO2 T00031045
cycle: 10

Station Type Date Time Source
KBKD TAF UTC NOAA

Error!

Example: see airport list